Startpagina
METAR-TAF:

METAR-TAF

Vliegvelden :

Caïro, Egypte

Luchthaven Caïro Internationaal

breedte: 30-08N, lengte: 031-24E, hoogte: 64 m

Actueel weer

Dit bericht is 6 minuten geleden gemaakt, om 10:00 UTC
Wind 3 kt uit het noordwesten
Temperatuur 20°C
Vochtigheid 49%
Druk 1016 hPa
Zicht 10 km of meer
Verspreide wolken op 2500 ft
Verspreide wolken op 7000 ft

METAR: HECA 191000Z 32003KT 9999 SCT025 SCT070 20/09 Q1016 NOSIG

Tijdstip: 12:06 (10:06 UTC)

Verwachting

Dit bericht is 5 uur en het 6 minuten geleden gemaakt, om 05:00 UTC
Verwachting geldig van 19 om 06 UTC tot 20 om 12 UTC
Wind 3 kt uit variabele richting
Zicht 10 km of meer
Verspreide wolken op 2500 ft
Wijzigt naar
van 19 om 10 UTC tot 19 om 12 UTC
Wind 10 kt uit het noordnoordwesten
Kans 30% :
Tijdelijke
van 20 om 03 UTC tot 20 om 06 UTC
Wind 3 kt uit variabele richting
Zicht: 4000 m
nevel

TAF: HECA 190500Z 1906/2012 VRB03KT 9999 SCT025 BECMG 1910/1912 34010KT PROB30 TEMPO 2003/2006 VRB03KT 4000 BR NSC

Waarnemingen en weersverwachtingen van meer dan 4000 vliegvelden (METAR en TAF).

De beschikbare stations zijn de gele en rode punten op de kaart.

Ga met uw muis naar het station om de naam te zien.

Klik dan om waarnemingen en weersverwachtingen te zien.

kaart wijzigen: klik op de groene knoppen met een zwart kruis om in te zoomen, op de groene knop met een streepje om uit te zoomen of op de groene pijlen voor aangrenzende kaarten.


METAR-TAF: